createdAt,value
2018-05-16T00:01:13.655Z,18.40
2018-05-16T00:03:41.184Z,19.20
2018-05-16T00:06:08.709Z,19.23
2018-05-16T00:08:36.236Z,21.43
2018-05-16T00:11:03.761Z,23.77
2018-05-16T00:13:31.306Z,23.43
2018-05-16T00:15:58.836Z,22.77
2018-05-16T00:18:26.368Z,23.20
2018-05-16T00:20:53.900Z,23.87
2018-05-16T00:23:21.424Z,27.07
2018-05-16T00:25:48.949Z,29.77
2018-05-16T00:28:16.480Z,30.30
2018-05-16T00:30:44.009Z,30.50
2018-05-16T00:33:11.532Z,31.13
2018-05-16T00:35:39.057Z,28.50
2018-05-16T00:38:06.585Z,29.83
2018-05-16T00:40:34.132Z,31.37
2018-05-16T00:43:01.661Z,27.63
2018-05-16T00:45:29.374Z,28.90
2018-05-16T00:47:56.896Z,28.60
2018-05-16T00:50:24.440Z,29.17
2018-05-16T00:52:51.975Z,28.80
2018-05-16T00:55:19.500Z,27.57
2018-05-16T00:57:47.016Z,28.50
2018-05-16T01:00:14.549Z,26.80
2018-05-16T01:02:42.076Z,28.40
2018-05-16T01:05:09.608Z,26.47
2018-05-16T01:07:37.132Z,29.27
2018-05-16T01:10:04.664Z,29.40
2018-05-16T01:12:32.192Z,28.83
2018-05-16T01:14:59.731Z,30.33
2018-05-16T01:17:27.268Z,29.10
2018-05-16T01:19:54.853Z,29.43
2018-05-16T01:22:22.361Z,28.90
2018-05-16T01:24:49.880Z,28.63
2018-05-16T01:27:17.404Z,29.37
2018-05-16T01:29:44.936Z,28.03
2018-05-16T01:32:12.455Z,28.70
2018-05-16T01:34:39.991Z,27.50
2018-05-16T01:37:07.508Z,28.80
2018-05-16T01:39:35.040Z,29.97
2018-05-16T01:42:02.592Z,28.93
2018-05-16T01:44:30.107Z,30.23
2018-05-16T01:46:57.631Z,30.07
2018-05-16T01:49:25.163Z,29.37
2018-05-16T01:51:52.693Z,29.93
2018-05-16T01:54:20.223Z,29.93
2018-05-16T01:56:47.747Z,31.13
2018-05-16T01:59:15.276Z,31.27
2018-05-16T02:01:42.815Z,32.67
2018-05-16T02:04:10.355Z,31.33
2018-05-16T02:06:37.892Z,30.83
2018-05-16T02:09:06.330Z,32.60
2018-05-16T02:11:33.883Z,31.57
2018-05-16T02:14:01.420Z,30.77
2018-05-16T02:16:28.950Z,33.33
2018-05-16T02:18:56.476Z,32.20
2018-05-16T02:21:24.002Z,32.13
2018-05-16T02:23:51.537Z,30.30
2018-05-16T02:26:19.082Z,31.27
2018-05-16T02:28:46.609Z,32.53
2018-05-16T02:31:14.135Z,31.80
2018-05-16T02:33:41.660Z,30.93
2018-05-16T02:36:09.183Z,31.53
2018-05-16T02:38:36.731Z,30.77
2018-05-16T02:41:04.310Z,31.27
2018-05-16T02:43:31.831Z,32.43
2018-05-16T02:45:59.355Z,30.53
2018-05-16T02:48:26.901Z,30.83
2018-05-16T02:50:54.473Z,32.40
2018-05-16T02:53:22.010Z,32.67
2018-05-16T02:55:49.548Z,32.83
2018-05-16T02:58:17.094Z,32.00
2018-05-16T03:00:44.612Z,32.30
2018-05-16T03:03:12.140Z,33.93
2018-05-16T03:05:39.676Z,35.23
2018-05-16T03:08:07.205Z,35.23
2018-05-16T03:10:34.745Z,35.03
2018-05-16T03:13:02.276Z,33.50
2018-05-16T03:15:29.816Z,35.03
2018-05-16T03:17:57.336Z,34.37
2018-05-16T03:20:24.865Z,34.00
2018-05-16T03:22:52.409Z,35.37
2018-05-16T03:25:19.945Z,35.67
2018-05-16T03:27:47.476Z,35.03
2018-05-16T03:30:15.008Z,35.67
2018-05-16T03:32:42.554Z,37.00
2018-05-16T03:35:10.090Z,36.17
2018-05-16T03:37:37.615Z,37.03
2018-05-16T03:40:05.160Z,36.53
2018-05-16T03:42:32.694Z,38.80
2018-05-16T03:45:00.221Z,38.83
2018-05-16T03:47:27.747Z,39.57
2018-05-16T03:49:55.277Z,38.33
2018-05-16T03:52:22.805Z,38.33
2018-05-16T03:54:50.332Z,38.40
2018-05-16T03:57:29.543Z,35.93
2018-05-16T04:00:08.889Z,37.10
2018-05-16T04:05:40.080Z,35.43
2018-05-16T04:08:07.614Z,37.93
2018-05-16T04:10:35.144Z,36.57
2018-05-16T04:13:02.673Z,36.23
2018-05-16T04:15:30.207Z,36.13
2018-05-16T04:17:57.756Z,36.03
2018-05-16T04:20:25.287Z,37.17
2018-05-16T04:22:52.809Z,38.87
2018-05-16T04:25:20.336Z,36.53
2018-05-16T04:27:47.902Z,36.03
2018-05-16T04:30:15.426Z,36.47
2018-05-16T04:32:43.025Z,36.03
2018-05-16T04:35:10.505Z,39.77
2018-05-16T04:37:38.036Z,36.67
2018-05-16T04:40:05.558Z,40.43
2018-05-16T04:42:33.084Z,37.97
2018-05-16T04:45:00.608Z,35.77
2018-05-16T04:47:28.139Z,35.00
2018-05-16T04:49:55.677Z,33.03
2018-05-16T04:52:23.239Z,33.17
2018-05-16T04:54:50.763Z,33.00
2018-05-16T04:57:18.308Z,32.47
2018-05-16T04:59:45.844Z,31.50
2018-05-16T05:02:13.389Z,30.70
2018-05-16T05:04:40.928Z,30.50
2018-05-16T05:07:08.452Z,30.50
2018-05-16T05:09:36.006Z,30.93
2018-05-16T05:12:03.529Z,31.27
2018-05-16T05:14:31.056Z,29.47
2018-05-16T05:16:58.588Z,29.47
2018-05-16T05:19:26.113Z,31.33
2018-05-16T05:21:53.640Z,30.23
2018-05-16T05:24:21.164Z,31.03
2018-05-16T05:26:48.714Z,30.00
2018-05-16T05:29:16.244Z,28.97
2018-05-16T05:31:43.774Z,27.87
2018-05-16T05:34:11.297Z,28.30
2018-05-16T05:36:38.825Z,27.67
2018-05-16T05:39:06.352Z,27.20
2018-05-16T05:41:33.881Z,26.47
2018-05-16T05:44:01.400Z,25.23
2018-05-16T05:46:28.934Z,26.57
2018-05-16T05:48:56.458Z,26.27
2018-05-16T05:51:23.992Z,25.87
2018-05-16T05:53:51.524Z,25.20
2018-05-16T05:56:19.064Z,24.50
2018-05-16T05:58:46.595Z,23.57
2018-05-16T06:01:14.115Z,25.27
2018-05-16T06:03:41.656Z,24.97
2018-05-16T06:06:09.263Z,22.47
2018-05-16T06:08:36.728Z,23.77
2018-05-16T06:11:04.254Z,22.47
2018-05-16T06:13:31.780Z,23.67
2018-05-16T06:15:59.299Z,22.50
2018-05-16T06:18:26.826Z,23.20
2018-05-16T06:20:54.372Z,21.63
2018-05-16T06:23:21.901Z,21.87
2018-05-16T06:25:49.435Z,21.60
2018-05-16T06:28:16.968Z,22.47
2018-05-16T06:30:44.492Z,21.93
2018-05-16T06:33:12.021Z,21.60
2018-05-16T06:35:39.547Z,20.70
2018-05-16T06:38:07.072Z,21.13
2018-05-16T06:40:34.610Z,20.37
2018-05-16T06:43:02.145Z,21.27
2018-05-16T06:45:31.815Z,21.80
2018-05-16T06:47:59.341Z,21.87
2018-05-16T06:50:26.891Z,21.20
2018-05-16T06:52:54.426Z,22.33
2018-05-16T06:55:22.015Z,21.50
2018-05-16T06:57:49.573Z,22.10
2018-05-16T07:00:17.108Z,20.87
2018-05-16T07:02:44.762Z,22.03
2018-05-16T07:05:12.417Z,22.13
2018-05-16T07:07:39.943Z,21.57
2018-05-16T07:10:07.537Z,21.90
2018-05-16T07:12:35.069Z,21.67
2018-05-16T07:15:02.613Z,20.20
2018-05-16T07:17:30.212Z,21.07
2018-05-16T07:19:57.744Z,20.27
2018-05-16T07:22:25.338Z,19.70
2018-05-16T07:24:52.870Z,20.47
2018-05-16T07:27:20.397Z,18.87
2018-05-16T07:29:47.936Z,18.10
2018-05-16T07:32:15.580Z,18.17
2018-05-16T07:34:43.109Z,18.37
2018-05-16T07:37:10.700Z,17.83
2018-05-16T07:39:38.225Z,16.97
2018-05-16T07:42:05.883Z,16.33
2018-05-16T07:44:33.479Z,16.43
2018-05-16T07:47:01.097Z,14.77
2018-05-16T07:49:28.618Z,15.10
2018-05-16T07:51:56.265Z,14.52
2018-05-16T07:54:23.793Z,13.27
2018-05-16T07:56:51.324Z,12.15
2018-05-16T07:59:18.876Z,12.13
2018-05-16T08:01:46.403Z,12.77
2018-05-16T08:04:13.940Z,12.43
2018-05-16T08:06:41.487Z,11.82
2018-05-16T08:09:09.018Z,12.90
2018-05-16T08:11:36.573Z,14.00
2018-05-16T08:14:04.112Z,12.40
2018-05-16T08:16:31.632Z,12.63
2018-05-16T08:18:59.216Z,12.87
2018-05-16T08:21:26.881Z,12.30
2018-05-16T08:23:54.414Z,12.80
2018-05-16T08:26:21.941Z,12.23
2018-05-16T08:28:49.549Z,13.13
2018-05-16T08:31:17.170Z,12.63
2018-05-16T08:33:44.680Z,12.93
2018-05-16T08:36:12.227Z,14.27
2018-05-16T08:38:39.801Z,13.33
2018-05-16T08:41:07.395Z,14.03
2018-05-16T08:43:35.027Z,12.33
2018-05-16T08:46:02.599Z,12.87
2018-05-16T08:48:30.129Z,13.57
2018-05-16T08:50:57.660Z,13.20
2018-05-16T08:53:25.206Z,12.47
2018-05-16T08:55:52.824Z,9.97
2018-05-16T08:58:20.349Z,9.93
2018-05-16T09:00:47.944Z,9.48
2018-05-16T09:03:15.475Z,8.60
2018-05-16T09:05:42.992Z,9.60
2018-05-16T09:08:10.675Z,8.77
2018-05-16T09:10:38.215Z,9.45
2018-05-16T09:13:05.749Z,8.27
2018-05-16T09:15:33.268Z,8.38
2018-05-16T09:18:00.796Z,7.87
2018-05-16T09:20:28.424Z,8.82
2018-05-16T09:22:55.984Z,8.68
2018-05-16T09:25:23.508Z,8.48
2018-05-16T09:27:51.062Z,7.43
2018-05-16T09:30:18.592Z,7.90
2018-05-16T09:32:46.108Z,7.15
2018-05-16T09:35:13.633Z,7.47
2018-05-16T09:37:41.160Z,7.20
2018-05-16T09:40:08.689Z,7.10
2018-05-16T09:42:36.223Z,6.82
2018-05-16T09:45:03.758Z,7.10
2018-05-16T09:47:31.276Z,7.05
2018-05-16T09:49:58.795Z,7.80
2018-05-16T09:52:26.316Z,6.82
2018-05-16T09:54:53.849Z,6.35
2018-05-16T09:57:21.372Z,7.17
2018-05-16T09:59:49.531Z,6.90
2018-05-16T10:02:17.713Z,7.53
2018-05-16T10:04:45.239Z,6.67
2018-05-16T10:07:12.780Z,6.30
2018-05-16T10:09:40.360Z,7.40
2018-05-16T10:12:07.901Z,6.40
2018-05-16T10:14:35.432Z,6.70
2018-05-16T10:17:02.989Z,5.90
2018-05-16T10:19:30.513Z,5.07
2018-05-16T10:21:58.044Z,5.43
2018-05-16T10:24:25.592Z,5.50
2018-05-16T10:26:53.158Z,6.63
2018-05-16T10:29:20.684Z,6.23
2018-05-16T10:31:48.211Z,6.87
2018-05-16T10:34:15.810Z,6.63
2018-05-16T10:36:43.369Z,6.67
2018-05-16T10:39:10.902Z,5.83
2018-05-16T10:41:38.456Z,5.33
2018-05-16T10:44:05.984Z,5.33
2018-05-16T10:46:33.507Z,5.13
2018-05-16T10:49:01.032Z,4.93
2018-05-16T10:51:28.572Z,4.63
2018-05-16T10:53:56.112Z,4.90
2018-05-16T10:56:23.641Z,5.17
2018-05-16T10:58:51.168Z,5.20
2018-05-16T11:01:18.693Z,5.20
2018-05-16T11:03:46.219Z,4.80
2018-05-16T11:06:13.749Z,4.90
2018-05-16T11:08:41.272Z,4.27
2018-05-16T11:11:08.798Z,3.70
2018-05-16T11:13:36.326Z,4.03
2018-05-16T11:16:03.852Z,4.50
2018-05-16T11:18:31.409Z,4.43
2018-05-16T11:20:58.936Z,4.00
2018-05-16T11:23:26.459Z,4.30
2018-05-16T11:25:53.988Z,4.70
2018-05-16T11:28:21.513Z,4.53
2018-05-16T11:30:49.103Z,4.73
2018-05-16T11:33:16.652Z,5.00
2018-05-16T11:35:44.178Z,4.50
2018-05-16T11:38:11.711Z,4.63
2018-05-16T11:40:39.247Z,4.63
2018-05-16T11:43:06.789Z,4.75
2018-05-16T11:45:34.329Z,5.50
2018-05-16T11:48:01.887Z,4.77
2018-05-16T11:50:29.416Z,5.33
2018-05-16T11:52:56.952Z,5.33
2018-05-16T11:55:24.498Z,5.10
2018-05-16T11:57:52.031Z,5.30
2018-05-16T12:00:19.548Z,5.17
2018-05-16T12:02:47.266Z,5.53
2018-05-16T12:05:14.741Z,5.10
2018-05-16T12:07:42.331Z,4.87
2018-05-16T12:10:09.863Z,4.80
2018-05-16T12:12:37.419Z,5.10
2018-05-16T12:15:04.956Z,4.93
2018-05-16T12:17:32.508Z,5.20
2018-05-16T12:20:00.086Z,5.13
2018-05-16T12:22:27.625Z,4.80
2018-05-16T12:24:55.148Z,5.50
2018-05-16T12:27:22.788Z,5.40
2018-05-16T12:29:50.340Z,5.20
2018-05-16T12:32:17.866Z,5.33
2018-05-16T12:34:45.443Z,5.00
2018-05-16T12:37:12.987Z,5.20
2018-05-16T12:39:40.523Z,5.37
2018-05-16T12:42:08.107Z,4.83
2018-05-16T12:44:35.652Z,5.13
2018-05-16T12:47:03.270Z,5.37
2018-05-16T12:49:30.798Z,4.60
2018-05-16T12:51:58.337Z,4.77
2018-05-16T12:54:25.870Z,4.60
2018-05-16T12:56:53.396Z,4.73
2018-05-16T12:59:20.924Z,4.43
2018-05-16T13:01:48.444Z,4.37
2018-05-16T13:04:15.975Z,4.33
2018-05-16T13:06:43.499Z,4.37
2018-05-16T13:09:11.020Z,4.10
2018-05-16T13:11:38.549Z,4.20
2018-05-16T13:14:06.077Z,4.00
2018-05-16T13:16:33.599Z,3.90
2018-05-16T13:19:01.139Z,3.40
2018-05-16T13:21:28.729Z,4.13
2018-05-16T13:23:56.209Z,3.50
2018-05-16T13:26:23.760Z,3.70
2018-05-16T13:28:51.677Z,3.43
2018-05-16T13:31:19.233Z,3.90
2018-05-16T13:33:46.797Z,3.47
2018-05-16T13:36:14.369Z,3.40
2018-05-16T13:38:42.020Z,3.90
2018-05-16T13:41:09.536Z,3.60
2018-05-16T13:43:37.065Z,3.60
2018-05-16T13:46:04.700Z,3.87
2018-05-16T13:48:32.216Z,4.33
2018-05-16T13:50:59.820Z,4.10
2018-05-16T13:53:27.380Z,4.00
2018-05-16T13:55:54.909Z,4.33
2018-05-16T13:58:22.429Z,4.80
2018-05-16T14:00:49.957Z,4.50
2018-05-16T14:03:17.513Z,4.27
2018-05-16T14:05:45.070Z,4.60
2018-05-16T14:08:12.613Z,4.20
2018-05-16T14:10:40.128Z,4.60
2018-05-16T14:13:07.759Z,4.57
2018-05-16T14:15:35.312Z,4.47
2018-05-16T14:18:02.827Z,4.20
2018-05-16T14:20:30.357Z,4.10
2018-05-16T14:22:57.896Z,4.23
2018-05-16T14:25:25.419Z,4.10
2018-05-16T14:27:52.948Z,4.27
2018-05-16T14:30:20.478Z,4.57
2018-05-16T14:32:48.034Z,4.20
2018-05-16T14:35:15.556Z,5.53
2018-05-16T14:37:43.089Z,4.70
2018-05-16T14:40:10.652Z,4.53
2018-05-16T14:42:38.250Z,4.57
2018-05-16T14:45:05.745Z,4.23
2018-05-16T14:47:33.276Z,4.60
2018-05-16T14:50:00.808Z,4.83
2018-05-16T14:52:28.343Z,4.67
2018-05-16T14:54:55.972Z,5.07
2018-05-16T14:57:23.513Z,5.07
2018-05-16T14:59:51.024Z,5.77
2018-05-16T15:02:18.568Z,5.17
2018-05-16T15:04:46.093Z,5.27
2018-05-16T15:07:13.629Z,5.10
2018-05-16T15:09:41.156Z,4.40
2018-05-16T15:12:08.686Z,4.37
2018-05-16T15:14:36.215Z,4.23
2018-05-16T15:17:03.777Z,4.33
2018-05-16T15:19:31.306Z,3.70
2018-05-16T15:21:58.880Z,4.03
2018-05-16T15:24:26.412Z,3.90
2018-05-16T15:26:53.968Z,3.60
2018-05-16T15:29:21.504Z,3.67
2018-05-16T15:31:49.035Z,4.10
2018-05-16T15:34:16.560Z,3.67
2018-05-16T15:36:44.082Z,3.80
2018-05-16T15:39:11.611Z,4.17
2018-05-16T15:41:39.143Z,3.67
2018-05-16T15:44:06.761Z,3.67
2018-05-16T15:46:34.279Z,3.97
2018-05-16T15:49:01.819Z,4.00
2018-05-16T15:51:29.339Z,3.80
2018-05-16T15:53:56.862Z,4.40
2018-05-16T15:56:24.390Z,4.53
2018-05-16T15:58:51.917Z,4.43
2018-05-16T16:01:19.444Z,7.53
2018-05-16T16:03:46.968Z,4.50
2018-05-16T16:06:14.503Z,4.57
2018-05-16T16:08:42.019Z,4.80
2018-05-16T16:11:09.557Z,4.83
2018-05-16T16:13:37.084Z,5.03
2018-05-16T16:16:04.649Z,6.30
2018-05-16T16:18:32.173Z,5.40
2018-05-16T16:20:59.710Z,4.90
2018-05-16T16:23:27.256Z,5.10
2018-05-16T16:25:54.796Z,5.60
2018-05-16T16:28:22.532Z,5.17
2018-05-16T16:30:50.106Z,5.50
2018-05-16T16:33:17.655Z,5.03
2018-05-16T16:35:45.214Z,5.07
2018-05-16T16:38:12.771Z,5.10
2018-05-16T16:40:40.323Z,5.47
2018-05-16T16:43:07.863Z,5.23
2018-05-16T16:45:35.401Z,5.30
2018-05-16T16:48:02.961Z,5.17
2018-05-16T16:50:30.521Z,4.90
2018-05-16T16:52:58.093Z,5.53
2018-05-16T16:55:25.645Z,5.07
2018-05-16T16:57:53.193Z,5.07
2018-05-16T17:00:20.761Z,5.40
2018-05-16T17:02:48.304Z,5.57
2018-05-16T17:05:15.837Z,7.53
2018-05-16T17:07:43.372Z,5.73
2018-05-16T17:10:11.073Z,6.10
2018-05-16T17:12:38.623Z,5.67
2018-05-16T17:15:06.183Z,5.70
2018-05-16T17:17:33.738Z,6.03
2018-05-16T17:20:01.291Z,5.80
2018-05-16T17:22:28.860Z,5.83
2018-05-16T17:24:56.500Z,5.50
2018-05-16T17:27:24.001Z,5.53
2018-05-16T17:29:51.554Z,5.50
2018-05-16T17:32:19.075Z,4.90
2018-05-16T17:34:46.588Z,5.10
2018-05-16T17:37:14.117Z,5.60
2018-05-16T17:39:41.676Z,5.47
2018-05-16T17:42:09.238Z,4.80
2018-05-16T17:44:36.774Z,5.33
2018-05-16T17:47:04.329Z,6.00
2018-05-16T17:49:31.850Z,5.67
2018-05-16T17:51:59.372Z,6.20
2018-05-16T17:54:26.913Z,6.70
2018-05-16T17:56:54.462Z,7.00
2018-05-16T17:59:21.977Z,5.97
2018-05-16T18:01:49.510Z,6.53
2018-05-16T18:04:17.069Z,6.30
2018-05-16T18:06:44.594Z,5.93
2018-05-16T18:09:12.112Z,6.57
2018-05-16T18:11:39.632Z,6.72
2018-05-16T18:14:19.089Z,6.20
2018-05-16T18:16:58.718Z,6.57
2018-05-16T18:19:26.285Z,6.10
2018-05-16T18:21:53.845Z,6.67
2018-05-16T18:24:21.365Z,6.57
2018-05-16T18:26:48.968Z,9.20
2018-05-16T18:29:16.502Z,6.97
2018-05-16T18:31:44.071Z,6.20
2018-05-16T18:34:11.584Z,6.67
2018-05-16T18:36:39.139Z,6.90
2018-05-16T18:39:06.769Z,6.87
2018-05-16T18:41:34.291Z,6.90
2018-05-16T18:44:01.829Z,6.53
2018-05-16T18:46:29.377Z,6.73
2018-05-16T18:48:57.007Z,6.90
2018-05-16T18:51:24.574Z,7.10
2018-05-16T18:53:52.129Z,6.70
2018-05-16T18:56:19.687Z,7.40
2018-05-16T18:58:47.217Z,6.93
2018-05-16T19:01:14.745Z,12.73
2018-05-16T19:03:42.291Z,8.30
2018-05-16T19:06:09.912Z,8.00
2018-05-16T19:08:37.528Z,7.07
2018-05-16T19:11:05.079Z,7.23
2018-05-16T19:13:32.707Z,7.23
2018-05-16T19:16:00.271Z,7.53
2018-05-16T19:18:27.799Z,7.67
2018-05-16T19:20:55.325Z,8.17
2018-05-16T19:23:22.861Z,7.97
2018-05-16T19:25:50.407Z,10.83
2018-05-16T19:28:17.936Z,8.60
2018-05-16T19:30:45.458Z,7.60
2018-05-16T19:33:12.983Z,7.30
2018-05-16T19:35:40.513Z,7.70
2018-05-16T19:38:08.104Z,8.50
2018-05-16T19:40:35.631Z,7.53
2018-05-16T19:43:03.269Z,7.37
2018-05-16T19:45:30.807Z,7.53
2018-05-16T21:09:55.360Z,8.90
2018-05-16T21:12:22.994Z,8.10
2018-05-16T21:14:50.534Z,8.10
2018-05-16T21:17:18.060Z,8.77
2018-05-16T21:19:45.675Z,8.90
2018-05-16T21:22:13.208Z,9.00
2018-05-16T21:24:40.735Z,9.53
2018-05-16T21:27:08.262Z,9.00
2018-05-16T21:29:35.818Z,9.07
2018-05-16T21:32:03.345Z,8.83
2018-05-16T21:34:30.937Z,9.10
2018-05-16T21:36:58.506Z,10.20
2018-05-16T21:39:26.027Z,9.57
2018-05-16T21:41:53.564Z,10.00
2018-05-16T21:44:21.106Z,9.83
2018-05-16T21:46:48.672Z,10.20
2018-05-16T21:49:16.297Z,11.13
2018-05-16T21:51:43.858Z,10.07
2018-05-16T21:54:11.436Z,10.20
2018-05-16T21:56:39.025Z,10.10
2018-05-16T21:59:06.524Z,10.37
2018-05-16T22:01:34.053Z,10.03
2018-05-16T22:04:01.581Z,9.93
2018-05-16T22:06:29.115Z,9.40
2018-05-16T22:08:56.649Z,9.87
2018-05-16T22:11:24.181Z,9.73
2018-05-16T22:13:51.732Z,10.27
2018-05-16T22:16:19.253Z,8.73
2018-05-16T22:18:46.780Z,9.80
2018-05-16T22:21:14.381Z,8.87
2018-05-16T22:23:41.880Z,9.00
2018-05-16T22:26:09.411Z,9.53
2018-05-16T22:28:36.947Z,8.97
2018-05-16T22:31:10.073Z,9.27
2018-05-16T22:33:43.185Z,9.13
2018-05-16T22:36:16.359Z,8.77
2018-05-16T22:38:49.324Z,9.50
2018-05-16T22:41:22.533Z,8.40
2018-05-16T22:43:53.001Z,8.27
2018-05-16T22:46:20.527Z,8.90
2018-05-16T22:48:48.054Z,8.57
2018-05-16T22:51:15.580Z,8.13
2018-05-16T22:53:43.105Z,8.40
2018-05-16T22:56:10.645Z,8.97
2018-05-16T22:58:38.169Z,8.73
2018-05-16T23:01:05.711Z,8.53
2018-05-16T23:03:33.242Z,8.00
2018-05-16T23:06:00.781Z,8.63
2018-05-16T23:08:28.324Z,8.77
2018-05-16T23:10:55.850Z,9.00
2018-05-16T23:13:23.379Z,9.40
2018-05-16T23:15:50.921Z,9.07
2018-05-16T23:18:18.462Z,8.50
2018-05-16T23:20:46.003Z,8.90
2018-05-16T23:23:13.545Z,8.90
2018-05-16T23:25:41.075Z,8.13
2018-05-16T23:28:08.747Z,8.70
2018-05-16T23:30:36.293Z,8.60
2018-05-16T23:33:03.822Z,8.97
2018-05-16T23:35:31.350Z,9.23
2018-05-16T23:37:58.873Z,9.73
2018-05-16T23:40:26.409Z,10.07
2018-05-16T23:42:53.997Z,9.30
2018-05-16T23:45:21.520Z,9.00
2018-05-16T23:47:49.045Z,9.87
2018-05-16T23:50:16.567Z,8.53
2018-05-16T23:52:44.093Z,9.17
2018-05-16T23:55:11.623Z,9.60
2018-05-16T23:57:39.146Z,9.30
